Time;durP1;ratioP1;P1;durP2;ratioP2;P2;SDS_P1;SDS_P2;PMS_P1;PMS_P2;Temp;Humidity;BMP_temperature;BMP_pressure;BME280_temperature;BME280_humidity;BME280_pressure;Samples;Min_cycle;Max_cycle;Signal;HPM_P1;HPM_P2
2023/10/20 05:24:15;;;;;;;10.38;7.03;;;13.40;99.90;;;;;;5247425;23;1099383;-83
2023/10/20 05:27:08;;;;;;;9.52;7.10;;;13.40;99.90;;;;;;4948682;29;20034;-82
2023/10/20 05:30:13;;;;;;;10.02;6.90;;;13.30;99.90;;;;;;4932144;29;20142;-83
2023/10/20 05:33:00;;;;;;;12.98;7.15;;;13.40;99.90;;;;;;4939751;29;20062;-80
2023/10/20 05:36:14;;;;;;;10.70;7.10;;;13.40;99.90;;;;;;4938387;29;20027;-81
2023/10/20 05:38:49;;;;;;;9.20;6.45;;;13.40;99.90;;;;;;4899694;29;20059;-81
2023/10/20 05:41:30;;;;;;;10.80;7.43;;;13.40;99.90;;;;;;4899596;29;20044;-80
2023/10/20 05:43:56;;;;;;;9.90;6.53;;;13.50;99.90;;;;;;4900017;29;20043;-81
2023/10/20 05:46:40;;;;;;;10.52;7.88;;;13.50;99.90;;;;;;4891028;29;20025;-81
2023/10/20 05:49:32;;;;;;;13.05;7.95;;;13.50;99.90;;;;;;4872438;29;20037;-81
2023/10/20 05:55:46;;;;;;;11.80;8.48;;;13.40;99.90;;;;;;4872213;29;20089;-79
2023/10/20 05:58:12;;;;;;;10.93;7.88;;;13.50;99.90;;;;;;4905236;29;20236;-79
2023/10/20 06:01:12;;;;;;;13.20;8.40;;;13.40;99.90;;;;;;4892851;29;20040;-80
2023/10/20 06:08:02;;;;;;;;;;;;;;;;;;;;;
2023/10/20 06:11:04;;;;;;;12.77;8.02;;;13.40;99.90;;;;;;4945511;29;20282;-81
2023/10/20 06:13:58;;;;;;;12.63;8.32;;;13.40;99.90;;;;;;4928708;29;20035;-80
2023/10/20 06:46:27;;;;;;;13.05;8.07;;;13.30;99.90;;;;;;4736305;30;20076;-84
2023/10/20 07:00:51;;;;;;;10.65;7.85;;;13.50;99.90;;;;;;4728219;30;20176;-84
2023/10/20 07:04:22;;;;;;;11.63;8.18;;;13.70;99.90;;;;;;4714877;30;20083;-84
2023/10/20 07:07:13;;;;;;;10.95;7.97;;;;;;;;;;4704041;30;20051;-83
2023/10/20 07:09:44;;;;;;;12.40;8.18;;;13.80;99.90;;;;;;4768764;30;20042;-82
2023/10/20 07:12:16;;;;;;;9.65;7.80;;;13.80;99.90;;;;;;4756633;30;20046;-83
2023/10/20 07:14:57;;;;;;;14.70;9.15;;;13.90;99.90;;;;;;4765723;30;20073;-82
2023/10/20 07:17:28;;;;;;;17.25;9.52;;;14.00;99.90;;;;;;4759651;29;20104;-81
2023/10/20 07:19:54;;;;;;;13.60;8.10;;;14.00;99.90;;;;;;4816292;29;20194;-82
2023/10/20 07:22:22;;;;;;;11.90;8.63;;;14.10;99.90;;;;;;4801108;29;20031;-81
2023/10/20 07:24:55;;;;;;;12.35;8.75;;;14.10;99.90;;;;;;4787682;29;20039;-82
2023/10/20 07:27:22;;;;;;;10.77;8.35;;;14.10;99.90;;;;;;4834072;29;20045;-80
2023/10/20 07:30:13;;;;;;;12.13;8.32;;;14.10;99.90;;;;;;4821605;29;20038;-80
2023/10/20 07:36:09;;;;;;;12.43;8.43;;;14.20;99.90;;;;;;4940126;29;20027;-81
2023/10/20 07:39:18;;;;;;;13.30;9.10;;;14.20;99.90;;;;;;4930491;29;20031;-80
2023/10/20 07:42:02;;;;;;;12.88;9.15;;;14.30;99.90;;;;;;4948107;29;20325;-80
2023/10/20 07:44:37;;;;;;;10.85;8.23;;;14.30;99.90;;;;;;4947036;29;20027;-81
2023/10/20 07:47:03;;;;;;;11.30;7.82;;;14.30;99.90;;;;;;4917505;29;20051;-79
2023/10/20 07:49:32;;;;;;;12.13;7.97;;;14.40;99.90;;;;;;4950441;29;20043;-82
2023/10/20 07:52:10;;;;;;;;;;;14.60;99.90;;;;;;4950930;29;20030;-79
2023/10/20 07:54:35;;;;;;;11.50;7.88;;;14.80;99.90;;;;;;4915770;29;19914;-80
2023/10/20 07:57:07;;;;;;;9.57;7.30;;;14.80;99.90;;;;;;4931077;29;20245;-79
2023/10/20 07:59:39;;;;;;;11.80;7.60;;;14.80;99.90;;;;;;4930779;29;20214;-80
2023/10/20 08:02:05;;;;;;;9.55;7.32;;;14.90;99.90;;;;;;4915858;29;20039;-81
2023/10/20 08:04:32;;;;;;;10.52;7.90;;;14.90;99.90;;;;;;4948020;29;20047;-81
2023/10/20 08:06:59;;;;;;;11.90;7.68;;;14.90;99.90;;;;;;4932052;29;20030;-78
2023/10/20 08:09:27;;;;;;;11.10;7.35;;;15.00;99.90;;;;;;4922932;29;20032;-78
2023/10/20 08:12:05;;;;;;;8.80;6.57;;;15.10;99.90;;;;;;4933375;29;20032;-79
2023/10/20 08:14:49;;;;;;;9.30;6.90;;;15.10;99.90;;;;;;4928629;29;20036;-81
2023/10/20 08:17:25;;;;;;;9.23;7.03;;;15.20;99.90;;;;;;4897689;29;20062;-80
2023/10/20 08:20:48;;;;;;;9.07;6.35;;;15.30;99.90;;;;;;4913156;29;20036;-81
2023/10/20 08:23:20;;;;;;;12.98;7.60;;;15.40;99.90;;;;;;4841010;29;20038;-81
2023/10/20 08:25:49;;;;;;;9.35;6.57;;;15.40;99.90;;;;;;4841178;29;20424;-81
2023/10/20 08:28:58;;;;;;;10.27;7.22;;;15.50;99.90;;;;;;4840580;29;20038;-81
2023/10/20 08:31:48;;;;;;;8.82;7.07;;;15.50;99.90;;;;;;4850555;29;20045;-81
2023/10/20 08:34:14;;;;;;;13.63;7.45;;;15.60;99.90;;;;;;4852642;29;20046;-81
2023/10/20 08:37:04;;;;;;;12.82;7.22;;;15.70;99.90;;;;;;4820671;29;20424;-81
2023/10/20 08:40:10;;;;;;;13.13;7.53;;;15.80;99.90;;;;;;4839645;29;20105;-80
2023/10/20 08:42:42;;;;;;;11.25;8.50;;;15.90;99.90;;;;;;4820983;29;20338;-82
2023/10/20 08:45:29;;;;;;;13.80;8.63;;;16.10;99.90;;;;;;4852190;29;20105;-80
2023/10/20 08:47:56;;;;;;;13.05;7.63;;;16.20;99.90;;;;;;4839450;29;20029;-80
2023/10/20 08:50:22;;;;;;;11.23;8.18;;;16.50;99.90;;;;;;4839325;29;20040;-81
2023/10/20 08:53:14;;;;;;;11.15;6.90;;;16.60;99.90;;;;;;4839626;29;20049;-81
2023/10/20 08:55:47;;;;;;;12.60;8.30;;;16.90;99.90;;;;;;4853875;29;20073;-81
2023/10/20 08:58:31;;;;;;;13.10;8.05;;;16.90;99.90;;;;;;4854001;29;20033;-82
2023/10/20 09:00:58;;;;;;;11.77;7.57;;;16.80;99.90;;;;;;4892160;29;20092;-81
2023/10/20 09:03:52;;;;;;;9.80;7.35;;;16.80;99.90;;;;;;4898976;29;20043;-80
2023/10/20 09:06:34;;;;;;;9.65;7.68;;;16.70;99.90;;;;;;4892110;29;20028;-80
2023/10/20 09:10:00;;;;;;;10.60;7.28;;;16.70;99.90;;;;;;4907389;29;20032;-80
2023/10/20 09:12:51;;;;;;;9.93;8.00;;;16.90;99.90;;;;;;4914133;29;20258;-80
2023/10/20 09:16:10;;;;;;;12.75;7.93;;;17.20;99.90;;;;;;4895083;29;20027;-79
2023/10/20 09:19:12;;;;;;;10.70;7.28;;;17.40;99.90;;;;;;4868632;29;20038;-79
2023/10/20 09:21:49;;;;;;;10.25;8.00;;;17.40;99.90;;;;;;4869236;29;20045;-79
2023/10/20 09:24:36;;;;;;;11.70;7.40;;;17.50;99.90;;;;;;4854212;29;20047;-81
2023/10/20 09:27:01;;;;;;;13.15;8.75;;;17.40;99.90;;;;;;4855262;29;20114;-80
2023/10/20 09:30:18;;;;;;;10.57;7.43;;;17.30;99.90;;;;;;4871366;29;20061;-80
2023/10/20 09:32:43;;;;;;;11.73;7.72;;;17.20;99.90;;;;;;4868861;29;20033;-80
2023/10/20 09:35:10;;;;;;;11.60;8.15;;;17.10;99.90;;;;;;4853572;29;20362;-79
2023/10/20 09:38:36;;;;;;;10.43;7.07;;;17.10;99.90;;;;;;4861026;29;20331;-80
2023/10/20 09:41:13;;;;;;;11.23;7.68;;;16.90;99.90;;;;;;4853714;29;20072;-77
2023/10/20 09:44:02;;;;;;;9.88;7.57;;;17.00;99.90;;;;;;4868251;29;20354;-78
2023/10/20 09:47:06;;;;;;;9.73;7.00;;;17.30;99.90;;;;;;4867154;29;20399;-79
2023/10/20 09:49:35;;;;;;;9.73;7.57;;;17.60;99.90;;;;;;4864962;29;20045;-79
2023/10/20 09:52:16;;;;;;;9.73;7.03;;;17.60;99.90;;;;;;4868876;29;20117;-79
2023/10/20 09:54:42;;;;;;;8.60;7.20;;;17.80;99.90;;;;;;4852116;29;20033;-79
2023/10/20 10:00:31;;;;;;;7.25;5.22;;;18.40;99.90;;;;;;4925942;29;20229;-80
2023/10/20 10:03:05;;;;;;;8.05;5.47;;;18.60;99.90;;;;;;4926270;29;20058;-80
2023/10/20 10:05:56;;;;;;;8.73;5.40;;;18.80;99.90;;;;;;4909838;29;20157;-78
2023/10/20 10:08:22;;;;;;;7.32;5.10;;;18.90;99.90;;;;;;4891310;29;20024;-81
2023/10/20 10:12:07;;;;;;;5.57;4.57;;;18.80;99.90;;;;;;4893963;29;20059;-79
2023/10/20 10:15:07;;;;;;;7.50;5.10;;;18.70;99.90;;;;;;4894386;29;20206;-80
2023/10/20 10:17:52;;;;;;;7.70;5.38;;;18.60;99.90;;;;;;4848549;29;20045;-81
2023/10/20 10:20:52;;;;;;;8.43;5.60;;;18.50;99.90;;;;;;4893197;29;20378;-80
2023/10/20 10:23:30;;;;;;;7.18;5.05;;;18.50;99.90;;;;;;4908731;29;20040;-79
2023/10/20 10:26:13;;;;;;;8.75;5.35;;;18.60;99.90;;;;;;4876317;29;20040;-78
2023/10/20 10:28:48;;;;;;;8.38;4.95;;;18.70;99.90;;;;;;4890211;29;20028;-79
2023/10/20 10:31:15;;;;;;;5.50;3.60;;;18.80;99.90;;;;;;4908741;29;20040;-80
2023/10/20 10:33:42;;;;;;;;;;;18.80;99.90;;;;;;4915359;29;20107;-78
2023/10/20 10:36:13;;;;;;;5.20;2.85;;;18.90;99.90;;;;;;4889373;29;19907;-78
2023/10/20 10:38:45;;;;;;;5.07;2.80;;;18.90;99.90;;;;;;4910480;29;20042;-77
2023/10/20 10:41:10;;;;;;;5.22;2.72;;;18.90;99.90;;;;;;4897303;29;20281;-76
2023/10/20 10:44:04;;;;;;;3.58;2.60;;;18.90;99.90;;;;;;4896426;29;20059;-78
2023/10/20 10:47:18;;;;;;;4.55;2.72;;;18.90;99.90;;;;;;4900539;29;20024;-78
2023/10/20 10:49:47;;;;;;;6.10;2.58;;;18.80;99.90;;;;;;4817306;29;20167;-79
2023/10/20 10:52:13;;;;;;;2.75;1.85;;;18.60;99.90;;;;;;4870734;29;20342;-79
2023/10/20 10:54:38;;;;;;;4.90;2.17;;;18.50;99.90;;;;;;4895799;29;20039;-79
2023/10/20 10:57:05;;;;;;;3.85;2.20;;;18.40;99.90;;;;;;4897335;29;20108;-78
2023/10/20 10:59:32;;;;;;;3.60;1.80;;;18.40;99.90;;;;;;4878063;29;20079;-80
2023/10/20 11:05:12;;;;;;;3.80;2.00;;;18.60;99.90;;;;;;4855676;29;20119;-78
2023/10/20 11:08:02;;;;;;;2.90;1.98;;;18.70;99.90;;;;;;4824887;29;20062;-79
2023/10/20 11:10:45;;;;;;;4.05;1.55;;;18.80;99.90;;;;;;4872535;29;20045;-78
2023/10/20 11:16:09;;;;;;;0.82;0.30;;;18.90;99.90;;;;;;4858904;29;20038;-77
2023/10/20 11:18:45;;;;;;;1.52;0.30;;;19.10;99.90;;;;;;4842750;29;20142;-81
2023/10/20 11:21:14;;;;;;;0.50;0.20;;;19.00;99.90;;;;;;4857057;29;20042;-77
2023/10/20 11:24:49;;;;;;;1.42;0.20;;;19.00;99.70;;;;;;4839783;29;20045;-78
2023/10/20 11:34:45;;;;;;;2.25;0.40;;;18.80;99.90;;;;;;4782770;30;20103;-80
2023/10/20 11:37:12;;;;;;;2.13;0.30;;;18.80;99.70;;;;;;4783314;30;20082;-77
2023/10/20 11:40:02;;;;;;;0.93;0.20;;;18.80;99.90;;;;;;4783036;30;20132;-78
2023/10/20 11:42:36;;;;;;;0.70;0.10;;;18.90;99.80;;;;;;4831248;29;20038;-77
2023/10/20 11:45:30;;;;;;;0.82;0.35;;;18.90;99.30;;;;;;4835177;29;20030;-79
2023/10/20 11:47:56;;;;;;;0.68;0.20;;;18.90;99.70;;;;;;4850616;29;20052;-79
2023/10/20 11:50:39;;;;;;;0.82;0.20;;;18.80;99.50;;;;;;4852791;29;20331;-76
2023/10/20 11:53:12;;;;;;;0.60;0.20;;;18.60;99.80;;;;;;4852218;29;20058;-77
2023/10/20 11:55:41;;;;;;;1.38;0.40;;;18.60;99.90;;;;;;4852212;29;20050;-78
2023/10/20 11:58:06;;;;;;;0.88;0.25;;;18.60;99.90;;;;;;4852451;29;20041;-77
2023/10/20 12:00:32;;;;;;;0.88;0.20;;;18.70;99.90;;;;;;4820610;29;20040;-75
2023/10/20 12:03:10;;;;;;;1.08;0.55;;;18.80;99.70;;;;;;4912714;29;20268;-80
2023/10/20 12:05:39;;;;;;;0.52;0.10;;;18.90;99.90;;;;;;4930095;29;20074;-79
2023/10/20 12:08:32;;;;;;;0.70;0.20;;;18.70;99.70;;;;;;4934176;29;20031;-77
2023/10/20 12:11:11;;;;;;;0.47;0.20;;;18.70;99.90;;;;;;4915304;29;20063;-80
2023/10/20 12:13:49;;;;;;;1.15;0.10;;;18.80;99.50;;;;;;4931594;29;20023;-77
2023/10/20 12:16:24;;;;;;;;;;;18.60;99.90;;;;;;4929890;29;20042;-76
2023/10/20 12:19:24;;;;;;;0.20;0.10;;;18.60;99.90;;;;;;4923985;29;19913;-78
2023/10/20 12:21:50;;;;;;;1.17;0.25;;;18.60;99.90;;;;;;4895042;29;20063;-78
2023/10/20 12:24:37;;;;;;;2.05;0.22;;;18.70;99.90;;;;;;4928276;29;20275;-74
2023/10/20 12:27:25;;;;;;;0.30;0.10;;;18.80;99.90;;;;;;4927716;29;20040;-78
2023/10/20 12:30:09;;;;;;;1.00;0.10;;;18.90;99.50;;;;;;4869177;29;20046;-77
2023/10/20 12:32:43;;;;;;;0.77;0.40;;;19.20;99.40;;;;;;4854768;29;20332;-77
2023/10/20 12:35:13;;;;;;;0.50;0.20;;;19.90;98.50;;;;;;4842073;29;20030;-76
2023/10/20 12:37:42;;;;;;;1.00;0.10;;;21.00;96.30;;;;;;4835263;29;20029;-78
2023/10/20 12:40:08;;;;;;;0.70;0.10;;;23.10;93.30;;;;;;4836172;29;20239;-79
2023/10/20 12:42:55;;;;;;;0.30;0.10;;;24.00;90.30;;;;;;4820542;29;20029;-76
2023/10/20 12:45:45;;;;;;;0.70;0.20;;;24.90;87.90;;;;;;4835955;29;20109;-78
2023/10/20 12:48:13;;;;;;;0.73;0.10;;;24.70;85.60;;;;;;4855969;29;20041;-77
2023/10/20 12:54:09;;;;;;;0.20;0.10;;;22.50;90.30;;;;;;4850241;29;20335;-76
2023/10/20 12:56:58;;;;;;;0.32;0.08;;;21.90;91.30;;;;;;4820012;29;20033;-74
2023/10/20 12:59:52;;;;;;;0.30;0.10;;;21.50;92.00;;;;;;4870153;29;20031;-76
2023/10/20 13:02:33;;;;;;;0.43;0.10;;;21.60;91.50;;;;;;4918245;29;20031;-79
2023/10/20 13:05:11;;;;;;;0.40;0.10;;;21.60;91.70;;;;;;4918123;29;20036;-78
2023/10/20 13:07:45;;;;;;;1.30;0.10;;;21.30;91.70;;;;;;4926511;29;20020;-77
2023/10/20 13:10:11;;;;;;;1.17;0.10;;;21.00;92.00;;;;;;4926482;29;20059;-76
2023/10/20 13:12:37;;;;;;;0.95;0.13;;;20.60;92.20;;;;;;4894612;29;20040;-76
2023/10/20 13:15:12;;;;;;;1.90;0.13;;;20.50;92.60;;;;;;4927011;29;20365;-76
2023/10/20 13:17:49;;;;;;;0.88;0.03;;;20.60;92.60;;;;;;4895055;29;20107;-77
2023/10/20 13:20:15;;;;;;;1.90;0.13;;;20.40;91.90;;;;;;4926785;29;20032;-75
2023/10/20 13:22:47;;;;;;;0.68;0.20;;;20.20;92.50;;;;;;4926510;29;20342;-78
2023/10/20 13:25:13;;;;;;;0.50;0.10;;;20.20;92.70;;;;;;4894875;29;20055;-75
2023/10/20 13:27:53;;;;;;;0.65;0.10;;;20.30;92.70;;;;;;4909721;29;20036;-75
2023/10/20 13:30:38;;;;;;;0.55;0.10;;;20.30;91.80;;;;;;4910015;29;20418;-76
2023/10/20 13:33:14;;;;;;;0.88;0.30;;;20.10;92.20;;;;;;4945298;29;20043;-76
2023/10/20 13:35:43;;;;;;;0.20;0.10;;;20.00;92.00;;;;;;4928655;29;20079;-75
2023/10/20 13:38:08;;;;;;;0.55;0.20;;;20.00;92.10;;;;;;4928721;29;20228;-78
2023/10/20 13:43:26;;;;;;;1.75;0.13;;;19.60;91.90;;;;;;4924900;29;20060;-75
2023/10/20 13:46:04;;;;;;;1.85;0.17;;;19.60;92.30;;;;;;4918429;29;20045;-77
2023/10/20 13:48:37;;;;;;;0.43;0.10;;;19.40;92.40;;;;;;4923527;29;20047;-78
2023/10/20 13:51:03;;;;;;;0.43;0.10;;;19.30;91.90;;;;;;4908447;29;20056;-78
2023/10/20 13:53:37;;;;;;;0.30;0.10;;;19.10;91.70;;;;;;4906100;29;20027;-77
2023/10/20 13:56:09;;;;;;;1.23;0.10;;;19.00;91.30;;;;;;4906720;29;20107;-80
2023/10/20 13:58:39;;;;;;;1.75;0.10;;;18.90;91.10;;;;;;4905386;29;20056;-78
2023/10/20 14:01:25;;;;;;;1.02;0.20;;;18.80;91.20;;;;;;4906558;29;20044;-77
2023/10/20 14:03:52;;;;;;;2.08;0.20;;;18.90;91.30;;;;;;4907771;29;20306;-77
2023/10/20 14:09:08;;;;;;;7.78;0.52;;;18.70;91.40;;;;;;4897527;29;20032;-82
2023/10/20 14:11:37;;;;;;;0.47;0.10;;;18.70;91.70;;;;;;4924876;29;20032;-79
2023/10/20 14:14:11;;;;;;;0.50;0.20;;;18.50;92.30;;;;;;4893067;29;20040;-80
2023/10/20 14:16:43;;;;;;;1.13;0.13;;;18.30;92.30;;;;;;4924502;29;20052;-79
2023/10/20 14:19:34;;;;;;;1.83;0.20;;;18.10;92.90;;;;;;4918591;29;20040;-76
2023/10/20 14:23:04;;;;;;;0.40;0.10;;;17.90;94.30;;;;;;4945174;29;20031;-80
2023/10/20 14:25:58;;;;;;;1.15;0.30;;;17.60;94.80;;;;;;4867032;29;20423;-77
2023/10/20 14:28:46;;;;;;;0.95;0.20;;;17.40;95.70;;;;;;4870810;29;20108;-79
2023/10/20 14:31:15;;;;;;;1.27;0.17;;;17.30;95.60;;;;;;4864549;29;20061;-79
2023/10/20 14:33:40;;;;;;;0.70;0.10;;;17.10;97.10;;;;;;4851894;29;20045;-77
2023/10/20 14:36:25;;;;;;;1.25;0.30;;;17.00;96.90;;;;;;4852197;29;20232;-81
2023/10/20 14:39:19;;;;;;;0.95;0.30;;;16.90;98.00;;;;;;4856404;29;20311;-78
2023/10/20 14:42:18;;;;;;;;;;;16.70;98.30;;;;;;4849950;29;20033;-80
2023/10/20 14:44:56;;;;;;;0.50;0.10;;;16.50;98.60;;;;;;4849109;29;19916;-79
2023/10/20 14:47:32;;;;;;;;;;;16.30;99.90;;;;;;4850236;29;20057;-79
2023/10/20 14:49:58;;;;;;;0.32;0.10;;;16.10;99.80;;;;;;4850511;29;19930;-79
2023/10/20 14:52:33;;;;;;;0.93;0.20;;;16.00;99.90;;;;;;4838079;29;20309;-80
2023/10/20 14:55:23;;;;;;;0.47;0.10;;;15.90;99.90;;;;;;4881049;29;20080;-79
2023/10/20 14:58:01;;;;;;;1.20;0.30;;;15.90;99.90;;;;;;4924938;29;20036;-76
2023/10/20 15:00:31;;;;;;;0.73;0.27;;;15.80;99.90;;;;;;4909002;29;20039;-78
2023/10/20 15:03:29;;;;;;;0.50;0.10;;;15.70;99.90;;;;;;4908601;29;20880;-79
2023/10/20 15:05:59;;;;;;;1.52;0.10;;;15.70;99.90;;;;;;4926322;29;20040;-79
2023/10/20 15:08:33;;;;;;;2.13;1.05;;;15.60;99.90;;;;;;4910180;29;20056;-78
2023/10/20 15:11:04;;;;;;;2.17;0.50;;;15.60;99.90;;;;;;4926700;29;20042;-77
2023/10/20 15:13:34;;;;;;;1.02;0.38;;;15.60;99.90;;;;;;4924554;29;20062;-77
2023/10/20 15:16:02;;;;;;;2.58;0.70;;;15.50;99.90;;;;;;4907163;29;20043;-77
2023/10/20 15:18:28;;;;;;;2.60;1.20;;;15.50;99.90;;;;;;4909188;29;20083;-76
2023/10/20 15:20:54;;;;;;;1.73;0.80;;;15.50;99.90;;;;;;4912159;29;20214;-79
2023/10/20 15:23:20;;;;;;;2.35;0.40;;;15.60;99.90;;;;;;4929753;29;20032;-78
2023/10/20 15:25:47;;;;;;;2.35;0.35;;;15.50;99.90;;;;;;4928505;29;20043;-77
2023/10/20 15:28:15;;;;;;;3.60;1.70;;;15.50;99.90;;;;;;4929295;29;20093;-77
2023/10/20 15:30:41;;;;;;;4.97;1.75;;;15.60;99.90;;;;;;4928691;29;20032;-77
2023/10/20 15:33:07;;;;;;;2.88;1.40;;;15.60;99.90;;;;;;4945539;29;20094;-76
2023/10/20 15:35:33;;;;;;;4.18;2.03;;;15.60;99.90;;;;;;4948393;29;20047;-76
2023/10/20 15:38:02;;;;;;;4.05;1.58;;;15.60;99.90;;;;;;4947563;29;20105;-77
2023/10/20 15:40:28;;;;;;;5.45;1.35;;;15.60;99.90;;;;;;4915666;29;20102;-76
2023/10/20 15:42:54;;;;;;;34.58;12.40;;;15.50;99.90;;;;;;4947766;29;20082;-77
2023/10/20 15:45:19;;;;;;;11.13;4.22;;;15.50;99.90;;;;;;4915601;29;20055;-76
2023/10/20 15:47:47;;;;;;;5.00;1.95;;;15.50;99.90;;;;;;4930969;29;20098;-78
2023/10/20 15:50:12;;;;;;;3.33;1.40;;;15.40;99.90;;;;;;4944808;29;20063;-78
2023/10/20 15:52:38;;;;;;;2.45;0.93;;;15.40;99.90;;;;;;4930699;29;20032;-77
2023/10/20 15:55:05;;;;;;;2.55;1.10;;;15.30;99.90;;;;;;4930227;29;20008;-78
2023/10/20 15:57:31;;;;;;;1.65;0.60;;;15.30;99.90;;;;;;4932579;29;20028;-77
2023/10/20 15:59:57;;;;;;;2.38;0.80;;;15.20;99.90;;;;;;4928406;29;20051;-78
2023/10/20 16:02:23;;;;;;;2.28;1.00;;;15.20;99.90;;;;;;4912195;29;20024;-78
2023/10/20 16:04:52;;;;;;;2.75;0.95;;;15.20;99.90;;;;;;4928517;29;20024;-77
2023/10/20 16:07:19;;;;;;;3.97;1.70;;;15.20;99.90;;;;;;4912068;29;20036;-76
2023/10/20 16:09:45;;;;;;;3.65;1.15;;;15.20;99.90;;;;;;4944110;29;20066;-77
2023/10/20 16:12:11;;;;;;;4.10;1.60;;;15.20;99.90;;;;;;4947812;29;20229;-77
2023/10/20 16:14:37;;;;;;;3.60;1.92;;;15.20;99.90;;;;;;4947651;29;20096;-77
2023/10/20 16:17:02;;;;;;;4.80;1.85;;;15.10;99.90;;;;;;4947277;29;20031;-76
2023/10/20 16:19:28;;;;;;;4.15;1.77;;;15.10;99.90;;;;;;4930862;29;20337;-77
2023/10/20 16:21:54;;;;;;;2.38;1.10;;;15.00;99.90;;;;;;4926964;29;20023;-78
2023/10/20 16:24:19;;;;;;;3.70;0.80;;;15.00;99.90;;;;;;4928596;29;20032;-79
2023/10/20 16:26:45;;;;;;;2.55;0.90;;;14.90;99.90;;;;;;4927962;29;20036;-79
2023/10/20 16:29:11;;;;;;;1.90;0.60;;;14.90;99.90;;;;;;4927850;29;20036;-78
2023/10/20 16:31:36;;;;;;;1.10;0.50;;;14.90;99.90;;;;;;4924395;29;20051;-77
2023/10/20 16:34:02;;;;;;;2.97;0.60;;;14.90;99.90;;;;;;4930693;29;20292;-78
2023/10/20 16:36:29;;;;;;;2.13;0.80;;;14.90;99.90;;;;;;4947785;29;20031;-78
2023/10/20 16:38:56;;;;;;;3.17;1.00;;;14.80;99.90;;;;;;4930238;29;20023;-77
2023/10/20 16:41:22;;;;;;;2.47;0.90;;;14.80;99.90;;;;;;4938438;29;20292;-79
2023/10/20 16:43:48;;;;;;;1.70;0.73;;;14.80;99.90;;;;;;4927941;29;20036;-76
2023/10/20 16:46:13;;;;;;;2.00;0.90;;;14.70;99.90;;;;;;4912187;29;20052;-77
2023/10/20 16:48:40;;;;;;;3.15;0.90;;;14.70;99.90;;;;;;4927535;29;20039;-77
2023/10/20 16:51:06;;;;;;;2.88;1.00;;;14.70;99.90;;;;;;4927821;29;20314;-78
2023/10/20 16:53:32;;;;;;;1.98;0.70;;;14.70;99.90;;;;;;4928035;29;20087;-78
2023/10/20 16:55:59;;;;;;;2.65;0.93;;;14.70;99.90;;;;;;4927592;29;20032;-77
2023/10/20 16:58:26;;;;;;;2.63;0.80;;;14.60;99.90;;;;;;4928529;29;20028;-73
2023/10/20 17:00:52;;;;;;;1.98;0.80;;;14.60;99.90;;;;;;4930115;29;20072;-75
2023/10/20 17:03:38;;;;;;;2.50;0.70;;;14.60;99.90;;;;;;4928000;29;20032;-75
2023/10/20 17:06:23;;;;;;;3.60;0.90;;;14.60;99.90;;;;;;4926542;29;20326;-77
2023/10/20 17:08:49;;;;;;;1.90;0.80;;;14.60;99.90;;;;;;4910546;29;20317;-78
2023/10/20 17:12:00;;;;;;;3.13;1.00;;;14.60;99.90;;;;;;4914844;29;20107;-78
2023/10/20 17:14:35;;;;;;;2.65;0.98;;;14.70;99.90;;;;;;4928949;29;20031;-77
2023/10/20 17:17:13;;;;;;;3.38;1.20;;;14.70;99.90;;;;;;4922209;29;20318;-76
2023/10/20 17:19:38;;;;;;;2.75;1.20;;;14.70;99.90;;;;;;4911563;29;20107;-79
2023/10/20 17:22:04;;;;;;;4.53;1.20;;;14.60;99.90;;;;;;4927455;29;20032;-79
2023/10/20 17:24:53;;;;;;;2.35;0.90;;;14.60;99.90;;;;;;4911775;29;20039;-78
2023/10/20 17:27:28;;;;;;;2.75;0.80;;;14.60;99.90;;;;;;4910846;29;20377;-77
2023/10/20 17:30:12;;;;;;;2.42;0.70;;;14.60;99.90;;;;;;4927532;29;20088;-80
2023/10/20 17:33:12;;;;;;;2.30;0.60;;;14.60;99.90;;;;;;4916454;29;20139;-80
2023/10/20 17:35:38;;;;;;;2.00;0.85;;;14.60;99.90;;;;;;4911135;29;20080;-80
2023/10/20 17:38:07;;;;;;;2.78;1.20;;;14.70;99.90;;;;;;4910143;29;20207;-78
2023/10/20 17:41:04;;;;;;;4.38;1.30;;;14.70;99.90;;;;;;4927993;29;20206;-79
2023/10/20 17:43:31;;;;;;;2.80;1.00;;;14.70;99.90;;;;;;4922747;29;20332;-81
2023/10/20 17:46:11;;;;;;;4.85;1.00;;;14.70;99.90;;;;;;4891737;29;20047;-77
2023/10/20 17:48:46;;;;;;;2.45;1.05;;;14.70;99.90;;;;;;4899656;29;20230;-82
2023/10/20 17:51:11;;;;;;;4.05;1.13;;;14.70;99.90;;;;;;4906908;29;20045;-79
2023/10/20 17:53:37;;;;;;;2.25;1.00;;;14.60;99.90;;;;;;4907751;29;20028;-79
2023/10/20 17:56:15;;;;;;;2.47;0.90;;;14.60;99.90;;;;;;4875934;29;20036;-80
2023/10/20 17:59:16;;;;;;;3.08;0.98;;;14.60;99.90;;;;;;4913814;29;20064;-80
2023/10/20 18:01:57;;;;;;;3.35;1.00;;;14.60;99.90;;;;;;4922234;29;20042;-81
2023/10/20 18:04:35;;;;;;;2.08;0.90;;;14.50;99.90;;;;;;4910719;29;20075;-78
2023/10/20 18:07:18;;;;;;;2.58;0.90;;;14.40;99.90;;;;;;4895250;29;20192;-79
2023/10/20 18:09:44;;;;;;;3.35;1.00;;;14.40;99.90;;;;;;4909907;29;20048;-81
2023/10/20 18:12:12;;;;;;;2.15;1.00;;;14.40;99.90;;;;;;4926812;29;20043;-80
2023/10/20 18:14:48;;;;;;;3.13;1.00;;;14.40;99.90;;;;;;4895458;29;20302;-81
2023/10/20 18:17:16;;;;;;;4.30;0.93;;;14.40;99.90;;;;;;4909010;29;20035;-79
2023/10/20 18:19:42;;;;;;;2.70;1.02;;;14.40;99.90;;;;;;4909423;29;20103;-79
2023/10/20 18:22:11;;;;;;;2.42;0.98;;;14.40;99.90;;;;;;4910002;29;20020;-78
2023/10/20 18:24:52;;;;;;;2.17;0.88;;;14.40;99.90;;;;;;4927696;29;20057;-79
2023/10/20 18:27:18;;;;;;;2.42;1.02;;;14.30;99.90;;;;;;4910047;29;20051;-79
2023/10/20 18:29:46;;;;;;;2.90;0.98;;;14.30;99.90;;;;;;4928665;29;20036;-78
2023/10/20 18:32:13;;;;;;;;;;;14.30;99.90;;;;;;4936873;29;20074;-78
2023/10/20 18:35:00;;;;;;;2.25;0.82;;;14.30;99.90;;;;;;4944230;29;20141;-78
2023/10/20 18:37:57;;;;;;;3.83;1.20;;;14.20;99.90;;;;;;4928462;29;20027;-80
2023/10/20 18:40:23;;;;;;;3.65;1.00;;;14.20;99.90;;;;;;4928111;29;20194;-79
2023/10/20 18:43:11;;;;;;;2.45;0.93;;;14.20;99.90;;;;;;4929267;29;20032;-78
2023/10/20 18:46:33;;;;;;;2.55;1.10;;;14.10;99.90;;;;;;4929540;29;20032;-77
2023/10/20 18:48:58;;;;;;;3.08;1.38;;;14.00;99.90;;;;;;4927378;29;20277;-78
2023/10/20 18:51:25;;;;;;;2.75;1.50;;;13.90;99.90;;;;;;4932514;29;20047;-78
2023/10/20 18:53:57;;;;;;;5.15;1.48;;;13.80;99.90;;;;;;4931738;29;20027;-77
2023/10/20 18:59:57;;;;;;;2.63;1.40;;;13.70;99.90;;;;;;4945678;29;20026;-80
2023/10/20 19:02:33;;;;;;;3.42;1.90;;;13.60;99.90;;;;;;4934398;29;20106;-75
2023/10/20 19:05:09;;;;;;;4.97;2.30;;;13.50;99.90;;;;;;4918877;29;20356;-79
2023/10/20 19:07:38;;;;;;;3.90;1.75;;;13.40;99.90;;;;;;4951598;29;20039;-76
2023/10/20 19:10:07;;;;;;;5.18;1.90;;;13.30;99.90;;;;;;4918436;29;20040;-75
2023/10/20 19:13:06;;;;;;;4.65;2.50;;;13.20;99.90;;;;;;4917624;29;20332;-77
2023/10/20 19:15:44;;;;;;;4.00;2.47;;;13.20;99.90;;;;;;4892088;29;20044;-77
2023/10/20 19:18:28;;;;;;;5.65;2.95;;;13.10;99.90;;;;;;4891181;29;20052;-76
2023/10/20 19:21:02;;;;;;;4.60;2.58;;;13.10;99.90;;;;;;4891165;29;20064;-76
2023/10/20 19:23:28;;;;;;;6.28;2.72;;;13.10;99.90;;;;;;4894499;29;20374;-75
2023/10/20 19:26:13;;;;;;;6.00;3.15;;;13.00;99.90;;;;;;4887247;29;20126;-77
2023/10/20 19:28:40;;;;;;;4.68;2.33;;;12.90;99.90;;;;;;4876313;29;20025;-76
2023/10/20 19:31:09;;;;;;;4.53;2.60;;;12.90;99.90;;;;;;4875801;29;20378;-80
2023/10/20 19:33:42;;;;;;;5.25;2.75;;;12.80;99.90;;;;;;4891327;29;20053;-76
2023/10/20 19:36:36;;;;;;;4.57;2.78;;;12.80;99.90;;;;;;4858784;29;20033;-78
2023/10/20 19:39:01;;;;;;;7.03;3.30;;;12.80;99.90;;;;;;4878865;29;20312;-77
2023/10/20 19:41:27;;;;;;;6.57;3.42;;;12.70;99.90;;;;;;4889920;29;20105;-77
2023/10/20 19:43:56;;;;;;;4.63;3.00;;;12.70;99.90;;;;;;4856164;29;20132;-78
2023/10/20 19:46:30;;;;;;;2.72;1.60;;;12.60;99.90;;;;;;4856716;29;20030;-78
2023/10/20 19:48:56;;;;;;;2.80;1.30;;;12.80;99.90;;;;;;4871021;29;20108;-76
2023/10/20 19:51:23;;;;;;;3.78;1.40;;;13.10;99.90;;;;;;4862135;29;20037;-78
2023/10/20 19:53:48;;;;;;;3.53;1.10;;;13.30;99.90;;;;;;4902360;29;20243;-77
2023/10/20 19:56:14;;;;;;;2.65;0.90;;;13.50;99.90;;;;;;4938598;29;20091;-77
2023/10/20 19:58:54;;;;;;;2.58;1.02;;;13.60;99.90;;;;;;4947962;29;20024;-77
2023/10/20 20:01:20;;;;;;;1.90;0.82;;;13.70;99.90;;;;;;4930828;29;20058;-77
2023/10/20 20:03:46;;;;;;;2.08;1.02;;;13.60;99.90;;;;;;4947587;29;20325;-76
2023/10/20 20:06:12;;;;;;;3.00;1.15;;;13.70;99.90;;;;;;4929682;29;20056;-76
2023/10/20 20:08:39;;;;;;;2.40;1.10;;;13.70;99.90;;;;;;4926905;29;20020;-80
2023/10/20 20:11:08;;;;;;;2.75;1.27;;;13.70;99.90;;;;;;4930554;29;20278;-77
2023/10/20 20:13:39;;;;;;;3.88;1.50;;;13.70;99.90;;;;;;4947908;29;20058;-77
2023/10/20 20:16:10;;;;;;;2.50;1.20;;;13.70;99.90;;;;;;4947142;29;20129;-79
2023/10/20 20:18:45;;;;;;;3.20;1.33;;;13.60;99.90;;;;;;4923622;29;20035;-77
2023/10/20 20:21:20;;;;;;;2.20;1.20;;;13.70;99.90;;;;;;4945434;29;20031;-78
2023/10/20 20:23:49;;;;;;;2.50;1.20;;;13.70;99.90;;;;;;4923913;29;20324;-76